Aviation Digital Data Service (ADDS)

Output produced by METARs form (0240 UTC 27 January 2022)
found at http://aviationweather.gov/metar/data/
 
METAR text: KEZF 270235Z AUTO 00000KT 10SM CLR M05/M12 A3045 RMK AO2 T10471116
Conditions at: KEZF (FREDERICKSB/SHAN, VA, US) observed 0235 UTC 27 January 2022
Temperature: -4.7°C (24°F)
Dewpoint: -11.6°C (11°F) [RH = 58%]
Pressure (altimeter): 30.45 inches Hg (1031.2 mb)
Winds: calm
Visibility: 10 or more miles (16+ km)
Ceiling: at least 12,000 feet AGL
Clouds: sky clear below 12,000 feet AGL
Weather: automated observation with no human augmentation;
there may or may not be significant weather present at this time